Time;durP1;ratioP1;P1;durP2;ratioP2;P2;SDS_P1;SDS_P2;PMS_P1;PMS_P2;Temp;Humidity;BMP_temperature;BMP_pressure;BME280_temperature;BME280_humidity;BME280_pressure;Samples;Min_cycle;Max_cycle;Signal;HPM_P1;HPM_P2
2024/02/21 00:02:21;;;;;;;;;;;;;;;18.61;32.46;101606.27;102860;1294;61344;-80
2024/02/21 00:04:47;;;;;;;;;;;;;;;18.60;32.50;101602.39;102691;1291;61841;-80
2024/02/21 00:07:12;;;;;;;;;;;;;;;18.61;32.46;101605.41;102857;1294;62537;-81
2024/02/21 00:09:38;;;;;;;;;;;;;;;18.60;32.53;101600.08;102974;1292;61406;-80
2024/02/21 00:12:05;;;;;;;;;;;;;;;18.60;32.57;101597.93;102675;1295;62349;-81
2024/02/21 00:14:30;;;;;;;;;;;;;;;18.60;32.46;101592.95;102782;1295;61374;-80
2024/02/21 00:16:56;;;;;;;;;;;;;;;18.59;32.46;101594.92;102882;1289;61392;-81
2024/02/21 00:19:22;;;;;;;;;;;;;;;18.60;32.63;101591.34;102678;1292;61406;-80
2024/02/21 00:21:47;;;;;;;;;;;;;;;18.59;32.49;101592.96;102734;1295;61548;-81
2024/02/21 00:24:13;;;;;;;;;;;;;;;18.59;32.44;101588.70;102837;1292;61401;-80
2024/02/21 00:26:39;;;;;;;;;;;;;;;18.59;32.58;101591.36;102743;1295;61387;-80
2024/02/21 00:29:05;;;;;;;;;;;;;;;18.59;32.47;101584.79;102666;1291;61711;-80
2024/02/21 00:31:31;;;;;;;;;;;;;;;18.59;32.52;101587.46;102636;1296;62026;-81
2024/02/21 00:33:56;;;;;;;;;;;;;;;18.58;32.51;101589.80;102706;1297;61408;-81
2024/02/21 00:36:22;;;;;;;;;;;;;;;18.59;32.58;101584.98;102707;1294;61508;-80
2024/02/21 00:38:47;;;;;;;;;;;;;;;18.59;32.52;101584.43;102663;1296;61503;-81
2024/02/21 00:41:13;;;;;;;;;;;;;;;18.58;32.53;101582.13;102690;1291;61458;-82
2024/02/21 00:43:38;;;;;;;;;;;;;;;18.58;32.59;101580.89;102669;1291;61828;-84
2024/02/21 00:46:05;;;;;;;;;;;;;;;18.58;32.63;101577.52;102725;1291;61586;-80
2024/02/21 00:48:31;;;;;;;;;;;;;;;18.57;32.60;101574.17;102696;1291;61876;-80
2024/02/21 00:50:56;;;;;;;;;;;;;;;18.57;32.59;101570.77;102655;1291;61461;-82
2024/02/21 00:53:22;;;;;;;;;;;;;;;18.57;32.52;101570.06;102660;1292;61399;-80
2024/02/21 00:55:47;;;;;;;;;;;;;;;18.57;32.57;101568.27;102690;1296;61832;-81
2024/02/21 00:58:13;;;;;;;;;;;;;;;18.58;32.66;101568.27;102557;1291;73268;-81
2024/02/21 01:00:38;;;;;;;;;;;;;;;18.56;32.64;101565.45;102615;1296;62113;-82
2024/02/21 01:03:04;;;;;;;;;;;;;;;18.57;32.61;101569.20;102700;1291;62528;-79
2024/02/21 01:05:30;;;;;;;;;;;;;;;18.57;32.57;101570.98;102646;1291;61768;-80
2024/02/21 01:07:55;;;;;;;;;;;;;;;18.56;32.48;101571.36;102757;1292;62364;-80
2024/02/21 01:10:22;;;;;;;;;;;;;;;18.56;32.61;101572.43;102672;1296;74475;-80
2024/02/21 01:12:48;;;;;;;;;;;;;;;18.56;32.60;101568.69;102753;1292;62887;-80
2024/02/21 01:15:14;;;;;;;;;;;;;;;18.56;32.58;101567.99;102706;1291;61356;-81
2024/02/21 01:17:40;;;;;;;;;;;;;;;18.56;32.69;101562.30;102712;1297;61391;-83
2024/02/21 01:20:06;;;;;;;;;;;;;;;18.56;32.57;101559.09;102654;1291;61687;-81
2024/02/21 01:22:32;;;;;;;;;;;;;;;18.55;32.63;101554.48;102741;1291;61464;-80
2024/02/21 01:24:58;;;;;;;;;;;;;;;18.55;32.56;101549.49;102594;1295;62308;-81
2024/02/21 01:27:23;;;;;;;;;;;;;;;18.55;32.59;101553.07;102760;1292;61416;-79
2024/02/21 01:29:49;;;;;;;;;;;;;;;18.55;32.67;101550.04;102759;1291;73700;-82
2024/02/21 01:32:15;;;;;;;;;;;;;;;18.55;32.66;101550.21;102670;1296;62542;-79
2024/02/21 01:34:41;;;;;;;;;;;;;;;18.55;32.67;101548.79;102708;1295;62292;-80
2024/02/21 01:37:07;;;;;;;;;;;;;;;18.54;32.71;101545.96;102803;1291;62524;-80
2024/02/21 01:39:33;;;;;;;;;;;;;;;18.55;32.72;101547.55;102839;1291;61291;-80
2024/02/21 01:41:59;;;;;;;;;;;;;;;18.55;32.69;101542.75;102607;1296;62727;-82
2024/02/21 01:44:24;;;;;;;;;;;;;;;18.55;32.73;101543.27;102723;1296;61807;-81
2024/02/21 01:46:51;;;;;;;;;;;;;;;18.55;32.68;101539.35;102659;1296;61341;-80
2024/02/21 01:49:17;;;;;;;;;;;;;;;18.54;32.71;101538.50;102695;1291;61431;-83
2024/02/21 01:51:43;;;;;;;;;;;;;;;18.54;32.70;101537.08;102829;1296;61350;-80
2024/02/21 01:54:09;;;;;;;;;;;;;;;18.54;32.69;101532.98;102645;1296;61405;-80
2024/02/21 01:56:34;;;;;;;;;;;;;;;18.54;32.60;101535.64;102555;1292;61825;-82
2024/02/21 01:59:00;;;;;;;;;;;;;;;18.54;32.74;101533.16;102722;1297;61476;-81
2024/02/21 02:01:29;;;;;;;;;;;;;;;18.54;32.61;101532.80;102686;1294;61385;-81
2024/02/21 02:03:54;;;;;;;;;;;;;;;18.53;32.76;101531.23;102773;1297;62736;-81
2024/02/21 02:06:20;;;;;;;;;;;;;;;18.53;32.71;101533.20;102702;1297;61405;-82
2024/02/21 02:08:46;;;;;;;;;;;;;;;18.54;32.73;101533.37;102726;1291;61417;-80
2024/02/21 02:11:13;;;;;;;;;;;;;;;18.53;32.66;101532.30;102575;1298;61485;-81
2024/02/21 02:13:39;;;;;;;;;;;;;;;18.53;32.76;101533.73;102726;1299;72631;-80
2024/02/21 02:16:07;;;;;;;;;;;;;;;18.53;32.67;101527.86;102650;1296;61554;-80
2024/02/21 02:18:33;;;;;;;;;;;;;;;18.53;32.76;101528.02;102683;1291;61424;-80
2024/02/21 02:20:58;;;;;;;;;;;;;;;18.53;32.73;101527.85;102666;1291;61453;-80
2024/02/21 02:23:25;;;;;;;;;;;;;;;18.53;32.75;101532.31;102846;1291;61429;-80
2024/02/21 02:25:52;;;;;;;;;;;;;;;18.53;32.75;101533.92;102671;1293;61457;-80
2024/02/21 02:28:17;;;;;;;;;;;;;;;18.52;32.65;101533.05;102697;1291;62044;-82
2024/02/21 02:30:45;;;;;;;;;;;;;;;18.52;32.75;101535.19;103012;1293;62394;-79
2024/02/21 02:33:11;;;;;;;;;;;;;;;18.52;32.83;101533.42;102674;1295;61278;-80
2024/02/21 02:35:37;;;;;;;;;;;;;;;18.52;32.73;101534.14;102700;1295;61391;-80
2024/02/21 02:38:03;;;;;;;;;;;;;;;18.52;32.78;101535.39;102762;1293;61764;-80
2024/02/21 02:40:28;;;;;;;;;;;;;;;18.52;32.76;101534.33;102642;1297;61488;-80
2024/02/21 02:43:03;;;;;;;;;;;;;;;18.52;32.73;101533.62;102758;1293;61405;-80
2024/02/21 02:45:28;;;;;;;;;;;;;;;18.52;32.73;101534.16;102835;1292;72291;-80
2024/02/21 02:47:54;;;;;;;;;;;;;;;18.52;32.77;101535.03;102633;1296;62440;-79
2024/02/21 02:50:20;;;;;;;;;;;;;;;18.52;32.80;101534.16;102646;1295;61359;-81
2024/02/21 02:52:45;;;;;;;;;;;;;;;18.51;32.81;101531.34;102701;1296;61421;-81
2024/02/21 02:55:11;;;;;;;;;;;;;;;18.51;32.64;101532.76;102670;1296;61393;-80
2024/02/21 02:57:37;;;;;;;;;;;;;;;18.51;32.72;101536.13;102690;1293;73445;-79
2024/02/21 03:00:02;;;;;;;;;;;;;;;18.51;32.76;101531.16;102719;1297;62210;-81
2024/02/21 03:02:28;;;;;;;;;;;;;;;18.51;32.72;101535.62;102660;1295;61394;-82
2024/02/21 03:04:53;;;;;;;;;;;;;;;18.51;32.78;101535.98;102705;1291;61421;-81
2024/02/21 03:07:19;;;;;;;;;;;;;;;18.51;32.86;101536.34;102727;1296;62604;-83
2024/02/21 03:09:45;;;;;;;;;;;;;;;18.51;32.76;101535.81;102693;1291;61420;-80
2024/02/21 03:12:11;;;;;;;;;;;;;;;18.50;32.80;101535.66;102678;1291;74664;-81
2024/02/21 03:14:36;;;;;;;;;;;;;;;18.51;32.83;101537.08;102646;1297;61368;-79
2024/02/21 03:17:02;;;;;;;;;;;;;;;18.50;32.81;101533.89;102651;1292;61894;-81
2024/02/21 03:19:28;;;;;;;;;;;;;;;18.50;32.76;101533.36;102791;1296;61486;-81
2024/02/21 03:21:55;;;;;;;;;;;;;;;18.50;32.80;101535.83;102668;1296;62164;-80
2024/02/21 03:24:21;;;;;;;;;;;;;;;18.50;32.74;101536.92;102702;1292;61356;-80
2024/02/21 03:26:50;;;;;;;;;;;;;;;18.50;32.81;101536.02;102746;1291;62030;-82
2024/02/21 03:29:16;;;;;;;;;;;;;;;18.50;32.81;101535.67;102688;1296;61386;-81
2024/02/21 03:31:42;;;;;;;;;;;;;;;18.49;32.80;101533.39;102656;1297;61395;-81
2024/02/21 03:34:10;;;;;;;;;;;;;;;18.50;32.84;101530.34;102725;1294;62312;-79
2024/02/21 03:36:35;;;;;;;;;;;;;;;18.49;32.81;101530.36;102663;1293;61465;-80
2024/02/21 03:39:01;;;;;;;;;;;;;;;18.49;32.80;101528.05;102656;1297;61870;-79
2024/02/21 03:41:29;;;;;;;;;;;;;;;18.49;32.83;101526.27;102813;1291;74484;-80
2024/02/21 03:43:55;;;;;;;;;;;;;;;18.49;32.70;101528.79;102740;1294;62490;-81
2024/02/21 03:46:21;;;;;;;;;;;;;;;18.49;32.89;101532.33;102786;1297;61797;-81
2024/02/21 03:48:46;;;;;;;;;;;;;;;18.49;32.87;101534.48;102636;1297;61464;-81
2024/02/21 03:51:12;;;;;;;;;;;;;;;18.49;32.76;101532.71;102701;1291;62421;-79
2024/02/21 03:53:37;;;;;;;;;;;;;;;18.49;32.79;101532.89;102835;1295;61513;-81
2024/02/21 03:56:04;;;;;;;;;;;;;;;18.48;32.80;101534.31;102685;1295;61417;-80
2024/02/21 03:58:30;;;;;;;;;;;;;;;18.49;32.87;101532.89;102671;1297;62558;-81
2024/02/21 04:00:55;;;;;;;;;;;;;;;18.48;32.77;101532.18;102758;1296;61384;-79
2024/02/21 04:03:21;;;;;;;;;;;;;;;18.48;32.87;101528.30;102674;1294;62636;-82
2024/02/21 04:05:46;;;;;;;;;;;;;;;18.48;32.86;101527.95;102704;1292;61390;-83
2024/02/21 04:08:12;;;;;;;;;;;;;;;18.48;33.01;101524.19;102714;1298;61406;-80
2024/02/21 04:10:38;;;;;;;;;;;;;;;18.48;32.83;101527.05;102116;1290;946185;-81
2024/02/21 04:13:06;;;;;;;;;;;;;;;18.47;32.82;101522.79;102710;1295;61397;-80
2024/02/21 04:15:31;;;;;;;;;;;;;;;18.48;32.87;101523.67;102687;1296;61397;-80
2024/02/21 04:17:57;;;;;;;;;;;;;;;18.47;32.78;101519.96;102741;1297;61453;-82
2024/02/21 04:20:23;;;;;;;;;;;;;;;18.47;32.84;101517.27;102658;1296;61313;-80
2024/02/21 04:22:50;;;;;;;;;;;;;;;18.47;32.91;101520.32;102773;1301;62681;-80
2024/02/21 04:25:16;;;;;;;;;;;;;;;18.47;32.84;101518.35;102701;1297;61397;-82
2024/02/21 04:27:42;;;;;;;;;;;;;;;18.47;32.96;101522.46;102759;1295;61399;-80
2024/02/21 04:30:07;;;;;;;;;;;;;;;18.46;32.90;101527.83;102638;1296;61494;-81
2024/02/21 04:32:33;;;;;;;;;;;;;;;18.47;32.93;101525.33;102689;1301;61305;-80
2024/02/21 04:35:00;;;;;;;;;;;;;;;18.46;32.96;101525.15;102779;1295;72557;-80
2024/02/21 04:37:25;;;;;;;;;;;;;;;18.47;32.82;101530.86;102794;1297;61464;-81
2024/02/21 04:39:51;;;;;;;;;;;;;;;18.46;32.91;101528.73;102677;1297;61419;-81
2024/02/21 04:42:16;;;;;;;;;;;;;;;18.46;32.99;101532.66;102683;1297;61324;-81
2024/02/21 04:44:43;;;;;;;;;;;;;;;18.46;32.96;101535.86;102664;1291;61428;-80
2024/02/21 04:47:08;;;;;;;;;;;;;;;18.46;32.89;101538.02;102659;1298;61488;-81
2024/02/21 04:49:34;;;;;;;;;;;;;;;18.46;32.95;101541.59;102626;1293;61502;-79
2024/02/21 04:52:00;;;;;;;;;;;;;;;18.46;32.96;101544.08;102720;1298;61374;-82
2024/02/21 04:54:25;;;;;;;;;;;;;;;18.45;33.00;101544.28;102647;1296;62300;-80
2024/02/21 04:56:51;;;;;;;;;;;;;;;18.46;32.93;101544.44;102655;1297;61389;-83
2024/02/21 04:59:17;;;;;;;;;;;;;;;18.45;32.99;101544.83;102778;1297;61440;-80
2024/02/21 05:01:42;;;;;;;;;;;;;;;18.45;32.94;101547.84;102643;1297;61487;-79
2024/02/21 05:04:08;;;;;;;;;;;;;;;18.45;32.97;101550.34;102777;1291;62305;-82
2024/02/21 05:06:41;;;;;;;;;;;;;;;18.45;32.90;101551.08;102731;1293;61308;-83
2024/02/21 05:09:08;;;;;;;;;;;;;;;18.44;33.11;101551.63;102693;1297;73429;-80
2024/02/21 05:11:35;;;;;;;;;;;;;;;18.44;32.93;101548.24;102780;1292;74706;-82
2024/02/21 05:14:01;;;;;;;;;;;;;;;18.44;32.90;101549.31;102673;1289;62466;-80
2024/02/21 05:16:26;;;;;;;;;;;;;;;18.44;33.01;101550.94;102695;1301;61405;-81
2024/02/21 05:18:52;;;;;;;;;;;;;;;18.44;32.94;101551.83;102720;1295;61452;-80
2024/02/21 05:21:17;;;;;;;;;;;;;;;18.43;32.94;101552.94;102821;1292;61439;-82
2024/02/21 05:23:43;;;;;;;;;;;;;;;18.43;32.94;101554.36;102646;1297;61517;-81
2024/02/21 05:26:09;;;;;;;;;;;;;;;18.43;33.02;101557.40;102585;1296;62305;-82
2024/02/21 05:28:34;;;;;;;;;;;;;;;18.43;32.94;101565.93;102465;1299;61404;-82
2024/02/21 05:31:03;;;;;;;;;;;;;;;18.43;32.95;101569.87;102401;1302;62372;-82
2024/02/21 05:33:29;;;;;;;;;;;;;;;18.42;32.97;101572.58;102413;1299;74479;-80
2024/02/21 05:35:54;;;;;;;;;;;;;;;18.41;33.09;101573.50;102538;1298;61453;-81
2024/02/21 05:38:20;;;;;;;;;;;;;;;18.41;33.02;101578.31;102308;1294;61575;-80
2024/02/21 05:40:45;;;;;;;;;;;;;;;18.41;33.11;101579.58;102468;1300;61482;-80
2024/02/21 05:43:12;;;;;;;;;;;;;;;18.41;32.93;101580.30;102659;1298;61999;-79
2024/02/21 05:45:37;;;;;;;;;;;;;;;18.40;32.91;101581.58;102457;1300;61870;-80
2024/02/21 05:48:04;;;;;;;;;;;;;;;18.40;33.04;101585.86;102543;1294;61414;-81
2024/02/21 05:50:32;;;;;;;;;;;;;;;18.40;33.03;101586.90;102433;1299;61270;-81
2024/02/21 05:52:57;;;;;;;;;;;;;;;18.40;33.07;101588.91;102471;1295;72604;-81
2024/02/21 05:55:23;;;;;;;;;;;;;;;18.39;33.07;101589.29;102438;1298;62264;-80
2024/02/21 05:57:49;;;;;;;;;;;;;;;18.39;33.03;101593.39;102582;1294;61449;-80
2024/02/21 06:00:14;;;;;;;;;;;;;;;18.39;33.04;101595.02;102673;1290;61342;-80
2024/02/21 06:02:40;;;;;;;;;;;;;;;18.39;33.01;101597.34;102684;1294;61973;-81
2024/02/21 06:05:09;;;;;;;;;;;;;;;18.38;33.00;101595.58;102794;1295;61416;-80
2024/02/21 06:07:35;;;;;;;;;;;;;;;18.38;33.03;101600.76;102866;1289;74519;-81
2024/02/21 06:10:01;;;;;;;;;;;;;;;18.38;33.02;101600.60;102788;1291;61806;-80
2024/02/21 06:12:27;;;;;;;;;;;;;;;18.38;32.99;101602.73;102705;1295;62434;-80
2024/02/21 06:14:53;;;;;;;;;;;;;;;18.37;33.09;101602.38;102857;1294;61526;-80
2024/02/21 06:17:18;;;;;;;;;;;;;;;18.38;32.96;101602.02;102658;1294;61401;-82
2024/02/21 06:19:45;;;;;;;;;;;;;;;18.38;32.99;101602.39;102710;1291;62398;-80
2024/02/21 06:22:10;;;;;;;;;;;;;;;18.37;32.96;101604.70;102744;1295;61391;-83
2024/02/21 06:24:36;;;;;;;;;;;;;;;18.38;33.01;101605.77;102622;1297;61334;-82
2024/02/21 06:27:03;;;;;;;;;;;;;;;18.38;33.09;101606.84;102891;1294;61423;-81
2024/02/21 06:29:28;;;;;;;;;;;;;;;18.39;33.01;101613.20;102637;1295;62187;-81
2024/02/21 06:31:54;;;;;;;;;;;;;;;18.39;33.04;101616.36;102656;1297;61445;-80
2024/02/21 06:34:19;;;;;;;;;;;;;;;18.41;33.08;101621.31;102831;1291;61879;-82
2024/02/21 06:36:45;;;;;;;;;;;;;;;18.42;33.00;101626.92;102839;1294;61324;-79
2024/02/21 06:39:11;;;;;;;;;;;;;;;18.45;32.98;101631.10;102693;1296;72491;-81
2024/02/21 06:41:37;;;;;;;;;;;;;;;18.47;32.98;101630.83;102730;1295;62499;-82
2024/02/21 06:44:02;;;;;;;;;;;;;;;18.49;32.95;101627.86;102782;1292;61379;-79
2024/02/21 06:46:28;;;;;;;;;;;;;;;18.52;32.96;101629.70;102838;1290;61390;-81
2024/02/21 06:48:56;;;;;;;;;;;;;;;18.55;32.95;101629.22;102706;1291;62322;-80
2024/02/21 06:51:21;;;;;;;;;;;;;;;18.58;33.07;101627.44;102824;1294;61421;-82
2024/02/21 06:53:48;;;;;;;;;;;;;;;18.61;33.01;101626.95;102676;1294;61458;-80
2024/02/21 06:56:13;;;;;;;;;;;;;;;18.63;33.05;101625.77;103188;1292;61402;-79
2024/02/21 06:58:39;;;;;;;;;;;;;;;18.66;32.95;101626.17;102689;1292;62357;-81
2024/02/21 07:01:04;;;;;;;;;;;;;;;18.69;32.98;101626.55;102838;1292;72573;-81
2024/02/21 07:03:31;;;;;;;;;;;;;;;18.72;32.96;101631.23;102730;1291;61400;-79
2024/02/21 07:05:56;;;;;;;;;;;;;;;18.74;32.94;101630.95;102879;1294;61400;-80
2024/02/21 07:08:22;;;;;;;;;;;;;;;18.78;32.94;101633.13;102881;1290;62503;-82
2024/02/21 07:10:47;;;;;;;;;;;;;;;18.80;32.99;101634.96;103571;1294;61402;-80
2024/02/21 07:13:15;;;;;;;;;;;;;;;18.83;33.05;101627.17;103267;1292;61381;-79
2024/02/21 07:15:41;;;;;;;;;;;;;;;18.85;32.93;101630.63;102853;1291;73396;-80
2024/02/21 07:18:06;;;;;;;;;;;;;;;18.87;32.88;101624.98;103131;1292;61387;-81
2024/02/21 07:20:33;;;;;;;;;;;;;;;18.89;32.87;101625.64;102724;1292;61379;-80
2024/02/21 07:22:59;;;;;;;;;;;;;;;18.91;32.91;101627.51;102815;1289;62256;-82
2024/02/21 07:25:25;;;;;;;;;;;;;;;18.92;32.86;101624.79;103003;1294;61508;-80
2024/02/21 07:27:50;;;;;;;;;;;;;;;18.93;32.97;101626.67;102628;1294;61410;-81
2024/02/21 07:30:17;;;;;;;;;;;;;;;18.94;33.11;101630.22;102781;1295;62558;-80
2024/02/21 07:32:43;;;;;;;;;;;;;;;18.95;32.95;101626.60;103136;1291;61401;-79
2024/02/21 07:35:12;;;;;;;;;;;;;;;18.97;32.99;101627.77;102662;1290;61882;-81
2024/02/21 07:37:38;;;;;;;;;;;;;;;18.98;33.11;101624.66;102761;1289;74476;-79
2024/02/21 07:40:05;;;;;;;;;;;;;;;18.99;32.95;101628.52;103121;1294;61863;-80
2024/02/21 07:42:31;;;;;;;;;;;;;;;19.01;33.11;101626.48;102966;1291;61411;-80
2024/02/21 07:44:57;;;;;;;;;;;;;;;19.02;32.98;101630.17;102704;1290;62644;-81
2024/02/21 07:47:23;;;;;;;;;;;;;;;19.03;32.98;101631.71;103140;1294;61392;-79
2024/02/21 07:49:49;;;;;;;;;;;;;;;19.04;33.03;101630.25;102839;1291;62328;-80
2024/02/21 07:52:15;;;;;;;;;;;;;;;19.06;32.91;101632.30;103000;1294;61390;-79
2024/02/21 07:54:40;;;;;;;;;;;;;;;19.07;32.97;101629.91;103074;1296;62640;-79
2024/02/21 07:57:07;;;;;;;;;;;;;;;19.08;32.90;101627.19;102984;1291;61290;-78
2024/02/21 07:59:32;;;;;;;;;;;;;;;19.10;33.03;101629.78;102820;1289;75447;-80
2024/02/21 08:01:58;;;;;;;;;;;;;;;19.11;33.04;101629.73;102916;1292;61436;-79
2024/02/21 08:04:24;;;;;;;;;;;;;;;19.12;32.99;101630.59;103019;1289;61357;-78
2024/02/21 08:06:53;;;;;;;;;;;;;;;19.13;33.06;101629.64;102751;1292;61406;-80
2024/02/21 08:09:19;;;;;;;;;;;;;;;19.14;32.93;101633.35;102997;1290;73802;-80
2024/02/21 08:11:44;;;;;;;;;;;;;;;19.15;32.91;101634.20;102797;1295;61520;-80
2024/02/21 08:14:10;;;;;;;;;;;;;;;19.16;33.10;101633.75;103357;1289;61703;-77
2024/02/21 08:16:36;;;;;;;;;;;;;;;19.18;32.88;101639.05;103107;1294;61329;-82
2024/02/21 08:19:04;;;;;;;;;;;;;;;19.18;32.95;101638.48;102988;1289;62407;-79
2024/02/21 08:21:29;;;;;;;;;;;;;;;19.19;32.91;101636.80;102924;1293;75379;-80
2024/02/21 08:23:55;;;;;;;;;;;;;;;19.20;32.86;101634.11;102851;1292;61827;-80
2024/02/21 08:26:20;;;;;;;;;;;;;;;19.21;32.82;101636.94;102823;1295;61384;-78
2024/02/21 08:28:46;;;;;;;;;;;;;;;19.21;32.89;101639.02;102927;1294;62293;-79
2024/02/21 08:31:18;;;;;;;;;;;;;;;19.22;32.85;101635.58;103028;1290;61323;-80
2024/02/21 08:33:43;;;;;;;;;;;;;;;19.24;32.93;101636.39;102940;1291;74288;-79
2024/02/21 08:36:09;;;;;;;;;;;;;;;19.24;32.94;101635.83;103064;1292;61405;-81
2024/02/21 08:38:34;;;;;;;;;;;;;;;19.25;32.98;101640.09;103011;1291;62416;-80
2024/02/21 08:41:01;;;;;;;;;;;;;;;19.26;32.86;101640.59;103042;1294;61402;-80
2024/02/21 08:43:26;;;;;;;;;;;;;;;19.27;32.92;101639.81;103010;1290;62420;-80
2024/02/21 08:45:52;;;;;;;;;;;;;;;19.30;33.11;101641.50;103147;1294;61774;-79
2024/02/21 08:48:17;;;;;;;;;;;;;;;19.31;32.97;101642.50;102816;1297;61684;-80
2024/02/21 08:50:43;;;;;;;;;;;;;;;19.33;32.92;101642.41;102769;1292;61407;-80
2024/02/21 08:53:08;;;;;;;;;;;;;;;19.34;33.08;101643.92;102941;1291;61409;-82
2024/02/21 08:55:35;;;;;;;;;;;;;;;19.36;32.99;101644.73;102923;1294;61391;-78
2024/02/21 08:58:01;;;;;;;;;;;;;;;19.36;32.97;101645.61;102865;1289;61484;-80
2024/02/21 09:00:27;;;;;;;;;;;;;;;19.36;33.03;101645.79;102962;1289;61383;-80
2024/02/21 09:02:52;;;;;;;;;;;;;;;19.36;33.18;101645.44;102793;1292;61333;-80
2024/02/21 09:05:18;;;;;;;;;;;;;;;19.36;33.08;101646.71;102934;1296;62308;-81
2024/02/21 09:07:44;;;;;;;;;;;;;;;19.35;33.24;101645.34;103052;1289;61445;-79
2024/02/21 09:10:09;;;;;;;;;;;;;;;19.34;33.25;101645.36;102941;1289;61305;-80
2024/02/21 09:12:35;;;;;;;;;;;;;;;19.33;33.30;101647.56;102746;1291;61872;-80
2024/02/21 09:15:01;;;;;;;;;;;;;;;19.33;33.31;101642.92;102881;1295;61342;-81
2024/02/21 09:17:29;;;;;;;;;;;;;;;19.32;33.28;101646.92;102994;1291;61853;-82
2024/02/21 09:19:55;;;;;;;;;;;;;;;19.31;33.55;101648.17;103091;1291;74271;-79
2024/02/21 09:22:22;;;;;;;;;;;;;;;19.32;33.53;101651.91;103547;1290;61266;-79
2024/02/21 09:24:48;;;;;;;;;;;;;;;19.32;33.53;101652.06;103185;1289;61421;-79
2024/02/21 09:27:13;;;;;;;;;;;;;;;19.33;33.65;101652.38;103320;1291;62922;-80
2024/02/21 09:29:40;;;;;;;;;;;;;;;19.34;33.68;101651.99;103227;1290;61377;-80
2024/02/21 09:32:06;;;;;;;;;;;;;;;19.34;33.63;101650.91;102845;1294;61895;-80
2024/02/21 09:34:32;;;;;;;;;;;;;;;19.34;33.69;101652.67;102815;1291;61398;-82
2024/02/21 09:36:57;;;;;;;;;;;;;;;19.34;33.70;101653.93;103316;1294;61390;-78
2024/02/21 09:39:23;;;;;;;;;;;;;;;19.34;33.67;101652.71;103187;1290;73521;-79
2024/02/21 09:41:55;;;;;;;;;;;;;;;19.33;33.83;101654.49;103338;1292;61390;-80
2024/02/21 09:44:21;;;;;;;;;;;;;;;19.33;33.68;101649.85;103587;1289;61134;-80
2024/02/21 09:46:53;;;;;;;;;;;;;;;19.33;33.82;101651.48;103470;1290;59433;-80
2024/02/21 09:49:29;;;;;;;;;;;;;;;19.33;33.67;101651.30;103097;1290;72758;-81
2024/02/21 09:51:55;;;;;;;;;;;;;;;19.33;33.69;101650.05;103138;1290;74143;-80
2024/02/21 09:54:20;;;;;;;;;;;;;;;19.33;33.71;101647.36;102704;1295;61875;-81
2024/02/21 09:56:47;;;;;;;;;;;;;;;19.33;33.62;101646.64;102804;1288;61319;-80
2024/02/21 09:59:13;;;;;;;;;;;;;;;19.34;33.70;101643.25;102826;1289;61325;-80
2024/02/21 10:01:39;;;;;;;;;;;;;;;19.34;33.69;101642.71;102991;1294;62678;-80
2024/02/21 10:04:04;;;;;;;;;;;;;;;19.34;33.62;101639.13;103068;1290;61420;-79
2024/02/21 10:06:30;;;;;;;;;;;;;;;19.34;33.63;101641.27;102950;1292;61380;-80
2024/02/21 10:08:56;;;;;;;;;;;;;;;19.34;33.64;101637.17;103096;1294;62331;-79
2024/02/21 10:11:25;;;;;;;;;;;;;;;19.34;33.68;101638.74;103223;1290;61388;-79
2024/02/21 10:13:51;;;;;;;;;;;;;;;19.34;33.51;101633.95;103394;1290;73339;-80
2024/02/21 10:16:16;;;;;;;;;;;;;;;19.34;33.66;101627.13;103157;1289;61333;-79
2024/02/21 10:18:42;;;;;;;;;;;;;;;19.35;33.61;101621.23;103560;1290;61393;-80
2024/02/21 10:21:07;;;;;;;;;;;;;;;19.35;33.65;101616.03;103264;1295;61401;-80
2024/02/21 10:23:49;;;;;;;;;;;;;;;19.35;33.66;101615.65;103125;1291;61741;-80
2024/02/21 10:26:15;;;;;;;;;;;;;;;19.36;33.50;101610.62;103236;1291;61740;-79
2024/02/21 10:28:51;;;;;;;;;;;;;;;19.37;33.56;101609.86;103153;1291;62211;-79
2024/02/21 10:31:27;;;;;;;;;;;;;;;19.38;33.63;101602.33;103093;1289;72310;-79
2024/02/21 10:33:56;;;;;;;;;;;;;;;19.38;33.58;101600.16;103074;1290;74633;-79
2024/02/21 10:36:22;;;;;;;;;;;;;;;19.39;33.60;101593.52;103121;1289;61417;-80
2024/02/21 10:38:48;;;;;;;;;;;;;;;19.39;33.57;101591.38;102863;1290;61437;-82
2024/02/21 10:41:13;;;;;;;;;;;;;;;19.39;33.61;101587.10;103045;1289;61420;-80
2024/02/21 10:43:40;;;;;;;;;;;;;;;19.39;33.44;101584.41;102841;1293;62307;-80
2024/02/21 10:46:19;;;;;;;;;;;;;;;19.39;33.52;101582.80;102875;1291;61349;-80
2024/02/21 10:48:45;;;;;;;;;;;;;;;19.39;33.70;101577.08;102949;1291;61411;-80
2024/02/21 10:51:15;;;;;;;;;;;;;;;19.39;33.51;101576.90;102631;1297;61461;-82
2024/02/21 10:53:53;;;;;;;;;;;;;;;19.39;33.66;101575.10;102774;1290;74398;-80
2024/02/21 10:56:31;;;;;;;;;;;;;;;19.40;33.52;101574.20;102902;1291;62251;-79
2024/02/21 10:59:01;;;;;;;;;;;;;;;19.39;33.49;101567.81;102792;1292;61687;-80
2024/02/21 11:01:28;;;;;;;;;;;;;;;19.41;33.58;101571.30;103001;1294;73508;-81
2024/02/21 11:03:55;;;;;;;;;;;;;;;19.42;33.62;101564.64;102671;1291;74623;-79
2024/02/21 11:06:21;;;;;;;;;;;;;;;19.43;33.61;101563.11;102800;1291;61552;-80
2024/02/21 11:08:47;;;;;;;;;;;;;;;19.45;33.61;101565.52;102920;1292;62111;-79
2024/02/21 11:11:17;;;;;;;;;;;;;;;19.47;33.69;101563.30;102760;1296;61386;-80
2024/02/21 11:13:43;;;;;;;;;;;;;;;19.49;33.53;101559.64;102899;1290;74565;-79
2024/02/21 11:16:09;;;;;;;;;;;;;;;19.50;33.57;101557.61;102746;1291;61396;-82
2024/02/21 11:18:35;;;;;;;;;;;;;;;19.52;33.49;101557.68;102762;1291;61350;-79
2024/02/21 11:21:00;;;;;;;;;;;;;;;19.53;33.64;101551.93;102767;1295;61414;-79
2024/02/21 11:23:26;;;;;;;;;;;;;;;19.54;33.55;101542.55;102907;1291;61389;-79
2024/02/21 11:25:52;;;;;;;;;;;;;;;19.55;33.59;101543.02;103080;1292;61459;-79
2024/02/21 11:28:25;;;;;;;;;;;;;;;19.57;33.52;101543.48;102993;1289;62089;-81
2024/02/21 11:30:51;;;;;;;;;;;;;;;19.58;33.63;101544.69;102731;1291;61380;-81
2024/02/21 11:33:16;;;;;;;;;;;;;;;19.60;33.48;101548.16;102757;1296;62164;-80
2024/02/21 11:35:42;;;;;;;;;;;;;;;19.60;33.44;101548.31;102653;1289;61581;-82
2024/02/21 11:38:09;;;;;;;;;;;;;;;19.62;33.53;101543.61;102741;1291;63287;-80
2024/02/21 11:40:34;;;;;;;;;;;;;;;19.62;33.48;101543.25;102897;1291;61871;-80
2024/02/21 11:43:00;;;;;;;;;;;;;;;19.62;33.56;101537.72;102727;1294;61413;-79
2024/02/21 11:45:27;;;;;;;;;;;;;;;19.61;33.62;101538.30;102842;1291;62296;-81
2024/02/21 11:47:52;;;;;;;;;;;;;;;19.60;33.58;101542.05;102853;1289;74237;-80
2024/02/21 11:50:20;;;;;;;;;;;;;;;19.59;33.60;101540.83;102800;1291;61488;-81
2024/02/21 11:52:46;;;;;;;;;;;;;;;19.58;33.61;101534.50;102848;1291;61302;-80
2024/02/21 11:55:12;;;;;;;;;;;;;;;19.57;33.58;101535.79;102666;1291;61376;-79
2024/02/21 11:57:42;;;;;;;;;;;;;;;19.55;33.57;101531.27;102672;1291;61470;-79
2024/02/21 12:00:20;;;;;;;;;;;;;;;19.54;33.66;101527.60;102988;1293;61278;-80
2024/02/21 12:02:46;;;;;;;;;;;;;;;19.52;33.65;101526.98;102816;1292;61296;-80
2024/02/21 12:05:12;;;;;;;;;;;;;;;19.51;33.57;101525.42;102814;1291;61767;-80
2024/02/21 12:07:40;;;;;;;;;;;;;;;19.49;33.69;101518.39;102895;1292;62522;-81
2024/02/21 12:10:12;;;;;;;;;;;;;;;19.47;33.62;101515.81;102631;1291;61373;-81
2024/02/21 12:12:38;;;;;;;;;;;;;;;19.46;33.64;101512.86;102755;1291;61614;-79
2024/02/21 12:15:04;;;;;;;;;;;;;;;19.44;33.69;101511.33;102993;1294;62669;-79
2024/02/21 12:17:30;;;;;;;;;;;;;;;19.42;33.60;101512.31;102629;1290;61404;-82
2024/02/21 12:19:56;;;;;;;;;;;;;;;19.41;33.62;101508.81;102662;1293;61432;-82
2024/02/21 12:22:22;;;;;;;;;;;;;;;19.40;33.61;101507.98;102660;1291;61339;-81